sensor_id;sensor_type;location;lat;lon;timestamp;P1;durP1;ratioP1;P2;durP2;ratioP2
46136;SDS011;31871;49.418;8.752;2022-09-25T00:01:34;7.55;;;2.80;;
46136;SDS011;31871;49.418;8.752;2022-09-25T00:04:00;5.53;;;3.08;;
46136;SDS011;31871;49.418;8.752;2022-09-25T00:06:26;4.22;;;2.67;;
46136;SDS011;31871;49.418;8.752;2022-09-25T00:08:53;5.95;;;2.58;;
46136;SDS011;31871;49.418;8.752;2022-09-25T00:11:22;5.03;;;2.95;;
46136;SDS011;31871;49.418;8.752;2022-09-25T00:13:51;5.30;;;2.72;;
46136;SDS011;31871;49.418;8.752;2022-09-25T00:16:19;6.82;;;2.65;;
46136;SDS011;31871;49.418;8.752;2022-09-25T00:18:47;5.88;;;2.97;;
46136;SDS011;31871;49.418;8.752;2022-09-25T00:21:31;10.77;;;3.08;;
46136;SDS011;31871;49.418;8.752;2022-09-25T00:23:58;6.43;;;3.17;;
46136;SDS011;31871;49.418;8.752;2022-09-25T00:26:25;7.20;;;3.30;;
46136;SDS011;31871;49.418;8.752;2022-09-25T00:28:52;6.63;;;3.28;;
46136;SDS011;31871;49.418;8.752;2022-09-25T00:31:19;6.30;;;2.83;;
46136;SDS011;31871;49.418;8.752;2022-09-25T00:33:53;6.53;;;3.13;;
46136;SDS011;31871;49.418;8.752;2022-09-25T00:36:21;5.40;;;3.03;;
46136;SDS011;31871;49.418;8.752;2022-09-25T00:38:47;6.57;;;3.17;;
46136;SDS011;31871;49.418;8.752;2022-09-25T00:41:16;6.05;;;3.45;;
46136;SDS011;31871;49.418;8.752;2022-09-25T00:43:44;6.15;;;3.20;;
46136;SDS011;31871;49.418;8.752;2022-09-25T00:46:10;9.13;;;3.85;;
46136;SDS011;31871;49.418;8.752;2022-09-25T00:48:47;9.88;;;4.10;;
46136;SDS011;31871;49.418;8.752;2022-09-25T00:51:21;5.40;;;3.42;;
46136;SDS011;31871;49.418;8.752;2022-09-25T00:53:53;6.60;;;3.55;;
46136;SDS011;31871;49.418;8.752;2022-09-25T00:56:21;7.53;;;3.75;;
46136;SDS011;31871;49.418;8.752;2022-09-25T00:58:48;8.82;;;3.90;;
46136;SDS011;31871;49.418;8.752;2022-09-25T01:01:13;8.35;;;3.63;;
46136;SDS011;31871;49.418;8.752;2022-09-25T01:03:40;7.95;;;4.25;;
46136;SDS011;31871;49.418;8.752;2022-09-25T01:06:06;7.25;;;4.07;;
46136;SDS011;31871;49.418;8.752;2022-09-25T01:08:34;7.15;;;4.00;;
46136;SDS011;31871;49.418;8.752;2022-09-25T01:11:01;7.72;;;3.95;;
46136;SDS011;31871;49.418;8.752;2022-09-25T01:13:26;8.57;;;4.32;;
46136;SDS011;31871;49.418;8.752;2022-09-25T01:16:05;8.52;;;4.50;;
46136;SDS011;31871;49.418;8.752;2022-09-25T01:18:52;7.15;;;3.90;;
46136;SDS011;31871;49.418;8.752;2022-09-25T01:21:46;8.70;;;4.43;;
46136;SDS011;31871;49.418;8.752;2022-09-25T01:27:17;12.38;;;4.57;;
46136;SDS011;31871;49.418;8.752;2022-09-25T01:33:05;7.95;;;4.18;;
46136;SDS011;31871;49.418;8.752;2022-09-25T01:38:32;11.10;;;4.00;;
46136;SDS011;31871;49.418;8.752;2022-09-25T01:41:08;7.07;;;3.80;;
46136;SDS011;31871;49.418;8.752;2022-09-25T01:43:42;12.27;;;4.40;;
46136;SDS011;31871;49.418;8.752;2022-09-25T01:46:37;6.90;;;3.67;;
46136;SDS011;31871;49.418;8.752;2022-09-25T01:49:12;8.45;;;4.20;;
46136;SDS011;31871;49.418;8.752;2022-09-25T01:51:46;5.70;;;3.60;;
46136;SDS011;31871;49.418;8.752;2022-09-25T01:54:27;6.20;;;3.40;;
46136;SDS011;31871;49.418;8.752;2022-09-25T01:56:59;6.82;;;3.70;;
46136;SDS011;31871;49.418;8.752;2022-09-25T02:02:01;7.68;;;3.75;;
46136;SDS011;31871;49.418;8.752;2022-09-25T02:04:35;6.05;;;3.72;;
46136;SDS011;31871;49.418;8.752;2022-09-25T02:07:04;6.75;;;3.63;;
46136;SDS011;31871;49.418;8.752;2022-09-25T02:09:35;6.63;;;3.90;;
46136;SDS011;31871;49.418;8.752;2022-09-25T02:12:06;8.07;;;3.90;;
46136;SDS011;31871;49.418;8.752;2022-09-25T02:14:40;6.93;;;3.70;;
46136;SDS011;31871;49.418;8.752;2022-09-25T02:17:18;8.77;;;3.20;;
46136;SDS011;31871;49.418;8.752;2022-09-25T02:20:07;7.57;;;3.67;;
46136;SDS011;31871;49.418;8.752;2022-09-25T02:22:52;9.25;;;4.18;;
46136;SDS011;31871;49.418;8.752;2022-09-25T02:25:21;7.72;;;4.32;;
46136;SDS011;31871;49.418;8.752;2022-09-25T02:28:00;16.80;;;4.25;;
46136;SDS011;31871;49.418;8.752;2022-09-25T02:30:25;8.10;;;4.20;;
46136;SDS011;31871;49.418;8.752;2022-09-25T02:32:51;13.45;;;3.95;;
46136;SDS011;31871;49.418;8.752;2022-09-25T02:35:18;7.18;;;4.28;;
46136;SDS011;31871;49.418;8.752;2022-09-25T02:37:43;9.07;;;4.13;;
46136;SDS011;31871;49.418;8.752;2022-09-25T02:40:09;8.52;;;4.40;;
46136;SDS011;31871;49.418;8.752;2022-09-25T02:53:34;9.30;;;4.13;;
46136;SDS011;31871;49.418;8.752;2022-09-25T02:56:02;11.75;;;5.35;;
46136;SDS011;31871;49.418;8.752;2022-09-25T02:59:07;8.20;;;4.38;;
46136;SDS011;31871;49.418;8.752;2022-09-25T03:01:47;8.15;;;4.18;;
46136;SDS011;31871;49.418;8.752;2022-09-25T03:04:14;9.25;;;4.15;;
46136;SDS011;31871;49.418;8.752;2022-09-25T03:06:42;10.48;;;4.40;;
46136;SDS011;31871;49.418;8.752;2022-09-25T03:09:08;10.15;;;4.40;;
46136;SDS011;31871;49.418;8.752;2022-09-25T03:11:35;7.18;;;4.22;;
46136;SDS011;31871;49.418;8.752;2022-09-25T03:14:06;9.30;;;4.28;;
46136;SDS011;31871;49.418;8.752;2022-09-25T03:19:10;8.90;;;4.35;;
46136;SDS011;31871;49.418;8.752;2022-09-25T03:21:35;6.75;;;3.67;;
46136;SDS011;31871;49.418;8.752;2022-09-25T03:24:01;8.85;;;4.40;;
46136;SDS011;31871;49.418;8.752;2022-09-25T03:26:27;8.80;;;4.45;;
46136;SDS011;31871;49.418;8.752;2022-09-25T03:28:52;9.50;;;4.25;;
46136;SDS011;31871;49.418;8.752;2022-09-25T03:31:18;12.20;;;4.90;;
46136;SDS011;31871;49.418;8.752;2022-09-25T03:33:44;6.43;;;4.00;;
46136;SDS011;31871;49.418;8.752;2022-09-25T03:36:11;8.52;;;4.63;;
46136;SDS011;31871;49.418;8.752;2022-09-25T03:38:37;11.25;;;3.97;;
46136;SDS011;31871;49.418;8.752;2022-09-25T03:41:04;7.93;;;4.60;;
46136;SDS011;31871;49.418;8.752;2022-09-25T03:43:33;9.52;;;4.20;;
46136;SDS011;31871;49.418;8.752;2022-09-25T03:46:00;12.63;;;4.30;;
46136;SDS011;31871;49.418;8.752;2022-09-25T03:48:28;11.38;;;4.75;;
46136;SDS011;31871;49.418;8.752;2022-09-25T03:50:54;7.15;;;3.53;;
46136;SDS011;31871;49.418;8.752;2022-09-25T03:53:20;8.48;;;4.25;;
46136;SDS011;31871;49.418;8.752;2022-09-25T03:55:46;8.45;;;4.22;;
46136;SDS011;31871;49.418;8.752;2022-09-25T03:58:13;6.18;;;3.75;;
46136;SDS011;31871;49.418;8.752;2022-09-25T04:00:40;8.20;;;4.55;;
46136;SDS011;31871;49.418;8.752;2022-09-25T04:03:06;9.77;;;4.70;;
46136;SDS011;31871;49.418;8.752;2022-09-25T04:05:31;11.73;;;4.55;;
46136;SDS011;31871;49.418;8.752;2022-09-25T04:07:57;7.75;;;4.07;;
46136;SDS011;31871;49.418;8.752;2022-09-25T04:10:24;9.05;;;4.93;;
46136;SDS011;31871;49.418;8.752;2022-09-25T04:12:50;10.52;;;5.00;;
46136;SDS011;31871;49.418;8.752;2022-09-25T04:15:18;9.45;;;4.53;;
46136;SDS011;31871;49.418;8.752;2022-09-25T04:17:46;9.13;;;4.15;;
46136;SDS011;31871;49.418;8.752;2022-09-25T04:20:12;7.35;;;3.75;;
46136;SDS011;31871;49.418;8.752;2022-09-25T04:22:38;8.38;;;3.90;;
46136;SDS011;31871;49.418;8.752;2022-09-25T04:25:04;9.23;;;3.70;;
46136;SDS011;31871;49.418;8.752;2022-09-25T04:27:30;8.05;;;4.22;;
46136;SDS011;31871;49.418;8.752;2022-09-25T04:29:56;9.95;;;5.07;;
46136;SDS011;31871;49.418;8.752;2022-09-25T04:32:22;8.68;;;4.55;;
46136;SDS011;31871;49.418;8.752;2022-09-25T04:35:06;9.07;;;4.90;;
46136;SDS011;31871;49.418;8.752;2022-09-25T04:37:32;7.68;;;4.55;;
46136;SDS011;31871;49.418;8.752;2022-09-25T04:39:58;9.10;;;3.67;;
46136;SDS011;31871;49.418;8.752;2022-09-25T04:42:23;7.88;;;4.43;;
46136;SDS011;31871;49.418;8.752;2022-09-25T04:44:53;7.85;;;4.45;;
46136;SDS011;31871;49.418;8.752;2022-09-25T04:47:20;11.80;;;4.22;;
46136;SDS011;31871;49.418;8.752;2022-09-25T04:49:46;9.77;;;5.00;;
46136;SDS011;31871;49.418;8.752;2022-09-25T04:52:13;10.32;;;4.95;;
46136;SDS011;31871;49.418;8.752;2022-09-25T04:54:40;9.52;;;4.70;;
46136;SDS011;31871;49.418;8.752;2022-09-25T04:57:06;12.48;;;5.63;;
46136;SDS011;31871;49.418;8.752;2022-09-25T04:59:33;16.40;;;6.22;;
46136;SDS011;31871;49.418;8.752;2022-09-25T05:01:58;14.35;;;6.53;;
46136;SDS011;31871;49.418;8.752;2022-09-25T05:04:24;13.88;;;7.05;;
46136;SDS011;31871;49.418;8.752;2022-09-25T05:06:50;16.05;;;7.55;;
46136;SDS011;31871;49.418;8.752;2022-09-25T05:09:15;15.00;;;6.93;;
46136;SDS011;31871;49.418;8.752;2022-09-25T05:11:41;13.90;;;6.85;;
46136;SDS011;31871;49.418;8.752;2022-09-25T05:14:07;14.60;;;6.95;;
46136;SDS011;31871;49.418;8.752;2022-09-25T05:16:33;15.02;;;6.57;;
46136;SDS011;31871;49.418;8.752;2022-09-25T05:18:58;12.85;;;6.32;;
46136;SDS011;31871;49.418;8.752;2022-09-25T05:21:24;12.95;;;6.22;;
46136;SDS011;31871;49.418;8.752;2022-09-25T05:23:49;13.57;;;6.57;;
46136;SDS011;31871;49.418;8.752;2022-09-25T05:26:15;11.75;;;5.40;;
46136;SDS011;31871;49.418;8.752;2022-09-25T05:28:41;14.20;;;5.20;;
46136;SDS011;31871;49.418;8.752;2022-09-25T05:31:06;14.10;;;6.07;;
46136;SDS011;31871;49.418;8.752;2022-09-25T05:33:32;13.90;;;5.90;;
46136;SDS011;31871;49.418;8.752;2022-09-25T05:36:02;14.00;;;6.20;;
46136;SDS011;31871;49.418;8.752;2022-09-25T05:38:33;13.75;;;5.80;;
46136;SDS011;31871;49.418;8.752;2022-09-25T05:41:09;11.90;;;5.13;;
46136;SDS011;31871;49.418;8.752;2022-09-25T05:43:39;18.38;;;6.38;;
46136;SDS011;31871;49.418;8.752;2022-09-25T05:46:07;13.70;;;5.53;;
46136;SDS011;31871;49.418;8.752;2022-09-25T05:48:33;12.98;;;5.28;;
46136;SDS011;31871;49.418;8.752;2022-09-25T05:50:59;13.30;;;5.28;;
46136;SDS011;31871;49.418;8.752;2022-09-25T05:53:25;16.67;;;7.20;;
46136;SDS011;31871;49.418;8.752;2022-09-25T05:55:52;16.08;;;7.00;;
46136;SDS011;31871;49.418;8.752;2022-09-25T05:58:19;20.20;;;7.60;;
46136;SDS011;31871;49.418;8.752;2022-09-25T06:00:46;15.43;;;6.10;;
46136;SDS011;31871;49.418;8.752;2022-09-25T06:03:12;14.13;;;6.60;;
46136;SDS011;31871;49.418;8.752;2022-09-25T06:05:38;14.88;;;6.05;;
46136;SDS011;31871;49.418;8.752;2022-09-25T06:08:06;12.80;;;6.55;;
46136;SDS011;31871;49.418;8.752;2022-09-25T06:10:32;11.45;;;5.07;;
46136;SDS011;31871;49.418;8.752;2022-09-25T06:12:59;11.15;;;5.38;;
46136;SDS011;31871;49.418;8.752;2022-09-25T06:15:26;20.90;;;7.45;;
46136;SDS011;31871;49.418;8.752;2022-09-25T06:17:56;15.10;;;6.82;;
46136;SDS011;31871;49.418;8.752;2022-09-25T06:20:22;17.92;;;6.97;;
46136;SDS011;31871;49.418;8.752;2022-09-25T06:22:55;12.93;;;5.80;;
46136;SDS011;31871;49.418;8.752;2022-09-25T06:25:22;13.98;;;6.28;;
46136;SDS011;31871;49.418;8.752;2022-09-25T06:27:59;14.38;;;6.65;;
46136;SDS011;31871;49.418;8.752;2022-09-25T06:30:26;18.55;;;6.80;;
46136;SDS011;31871;49.418;8.752;2022-09-25T06:33:11;17.77;;;7.43;;
46136;SDS011;31871;49.418;8.752;2022-09-25T06:35:56;16.45;;;6.90;;
46136;SDS011;31871;49.418;8.752;2022-09-25T06:38:21;14.05;;;6.38;;
46136;SDS011;31871;49.418;8.752;2022-09-25T06:40:47;13.52;;;6.50;;
46136;SDS011;31871;49.418;8.752;2022-09-25T06:43:13;17.58;;;7.13;;
46136;SDS011;31871;49.418;8.752;2022-09-25T06:45:40;18.25;;;7.28;;
46136;SDS011;31871;49.418;8.752;2022-09-25T06:50:40;20.08;;;7.20;;
46136;SDS011;31871;49.418;8.752;2022-09-25T06:53:11;21.35;;;7.78;;
46136;SDS011;31871;49.418;8.752;2022-09-25T06:55:38;15.85;;;7.53;;
46136;SDS011;31871;49.418;8.752;2022-09-25T06:58:05;17.77;;;8.25;;
46136;SDS011;31871;49.418;8.752;2022-09-25T07:00:32;28.55;;;9.40;;
46136;SDS011;31871;49.418;8.752;2022-09-25T07:02:58;21.33;;;9.02;;
46136;SDS011;31871;49.418;8.752;2022-09-25T07:05:43;19.35;;;8.10;;
46136;SDS011;31871;49.418;8.752;2022-09-25T07:08:12;20.95;;;9.38;;
46136;SDS011;31871;49.418;8.752;2022-09-25T07:10:50;19.55;;;9.02;;
46136;SDS011;31871;49.418;8.752;2022-09-25T07:13:17;21.92;;;8.95;;
46136;SDS011;31871;49.418;8.752;2022-09-25T07:15:51;26.88;;;9.70;;
46136;SDS011;31871;49.418;8.752;2022-09-25T07:18:17;19.98;;;8.98;;
46136;SDS011;31871;49.418;8.752;2022-09-25T07:20:42;22.10;;;9.65;;
46136;SDS011;31871;49.418;8.752;2022-09-25T07:23:10;21.25;;;9.45;;
46136;SDS011;31871;49.418;8.752;2022-09-25T07:25:41;23.65;;;9.55;;
46136;SDS011;31871;49.418;8.752;2022-09-25T07:28:07;24.83;;;9.60;;
46136;SDS011;31871;49.418;8.752;2022-09-25T07:30:33;23.10;;;9.80;;
46136;SDS011;31871;49.418;8.752;2022-09-25T07:33:00;21.27;;;9.55;;
46136;SDS011;31871;49.418;8.752;2022-09-25T07:35:26;26.73;;;9.35;;
46136;SDS011;31871;49.418;8.752;2022-09-25T07:37:54;20.83;;;9.55;;
46136;SDS011;31871;49.418;8.752;2022-09-25T07:40:21;28.45;;;11.52;;
46136;SDS011;31871;49.418;8.752;2022-09-25T07:42:47;27.65;;;10.38;;
46136;SDS011;31871;49.418;8.752;2022-09-25T07:45:12;20.65;;;9.07;;
46136;SDS011;31871;49.418;8.752;2022-09-25T07:47:38;22.73;;;10.60;;
46136;SDS011;31871;49.418;8.752;2022-09-25T07:50:03;24.45;;;10.43;;
46136;SDS011;31871;49.418;8.752;2022-09-25T07:52:29;22.77;;;10.60;;
46136;SDS011;31871;49.418;8.752;2022-09-25T07:54:55;25.38;;;9.70;;
46136;SDS011;31871;49.418;8.752;2022-09-25T07:57:22;26.67;;;11.00;;
46136;SDS011;31871;49.418;8.752;2022-09-25T07:59:48;27.23;;;10.48;;
46136;SDS011;31871;49.418;8.752;2022-09-25T08:02:13;23.30;;;9.98;;
46136;SDS011;31871;49.418;8.752;2022-09-25T08:04:39;26.33;;;10.75;;
46136;SDS011;31871;49.418;8.752;2022-09-25T08:07:04;21.02;;;10.35;;
46136;SDS011;31871;49.418;8.752;2022-09-25T08:09:30;21.50;;;9.80;;
46136;SDS011;31871;49.418;8.752;2022-09-25T08:11:56;21.75;;;9.52;;
46136;SDS011;31871;49.418;8.752;2022-09-25T08:14:21;20.83;;;9.43;;
46136;SDS011;31871;49.418;8.752;2022-09-25T08:16:49;19.50;;;8.77;;
46136;SDS011;31871;49.418;8.752;2022-09-25T08:19:16;22.05;;;9.88;;
46136;SDS011;31871;49.418;8.752;2022-09-25T08:21:42;22.02;;;9.27;;
46136;SDS011;31871;49.418;8.752;2022-09-25T08:24:09;23.30;;;9.73;;
46136;SDS011;31871;49.418;8.752;2022-09-25T08:26:35;27.77;;;9.75;;
46136;SDS011;31871;49.418;8.752;2022-09-25T08:29:01;21.83;;;8.80;;
46136;SDS011;31871;49.418;8.752;2022-09-25T08:31:28;23.52;;;9.20;;
46136;SDS011;31871;49.418;8.752;2022-09-25T08:33:53;19.95;;;9.10;;
46136;SDS011;31871;49.418;8.752;2022-09-25T08:36:19;25.05;;;10.13;;
46136;SDS011;31871;49.418;8.752;2022-09-25T08:38:45;21.10;;;9.10;;
46136;SDS011;31871;49.418;8.752;2022-09-25T08:41:21;19.33;;;8.40;;
46136;SDS011;31871;49.418;8.752;2022-09-25T08:43:56;18.60;;;8.70;;
46136;SDS011;31871;49.418;8.752;2022-09-25T08:46:28;17.13;;;8.38;;
46136;SDS011;31871;49.418;8.752;2022-09-25T08:49:46;21.55;;;8.05;;
46136;SDS011;31871;49.418;8.752;2022-09-25T08:52:18;17.38;;;7.35;;
46136;SDS011;31871;49.418;8.752;2022-09-25T08:54:46;20.20;;;8.50;;
46136;SDS011;31871;49.418;8.752;2022-09-25T08:59:49;16.30;;;7.90;;
46136;SDS011;31871;49.418;8.752;2022-09-25T09:02:20;16.80;;;7.85;;
46136;SDS011;31871;49.418;8.752;2022-09-25T09:04:54;19.10;;;8.10;;
46136;SDS011;31871;49.418;8.752;2022-09-25T09:07:30;18.00;;;8.35;;
46136;SDS011;31871;49.418;8.752;2022-09-25T09:10:14;15.00;;;7.32;;
46136;SDS011;31871;49.418;8.752;2022-09-25T09:12:59;16.67;;;8.02;;
46136;SDS011;31871;49.418;8.752;2022-09-25T09:15:46;19.57;;;8.23;;
46136;SDS011;31871;49.418;8.752;2022-09-25T09:18:25;16.63;;;8.00;;
46136;SDS011;31871;49.418;8.752;2022-09-25T09:20:56;16.73;;;7.78;;
46136;SDS011;31871;49.418;8.752;2022-09-25T09:23:37;16.27;;;8.10;;
46136;SDS011;31871;49.418;8.752;2022-09-25T09:26:14;15.40;;;7.15;;
46136;SDS011;31871;49.418;8.752;2022-09-25T09:40:00;16.42;;;7.50;;
46136;SDS011;31871;49.418;8.752;2022-09-25T09:53:22;12.40;;;5.88;;
46136;SDS011;31871;49.418;8.752;2022-09-25T09:55:49;13.85;;;6.30;;
46136;SDS011;31871;49.418;8.752;2022-09-25T09:58:22;12.35;;;6.40;;
46136;SDS011;31871;49.418;8.752;2022-09-25T10:00:54;14.05;;;6.45;;
46136;SDS011;31871;49.418;8.752;2022-09-25T10:03:24;12.20;;;6.30;;
46136;SDS011;31871;49.418;8.752;2022-09-25T10:05:56;14.73;;;7.45;;
46136;SDS011;31871;49.418;8.752;2022-09-25T10:08:25;13.68;;;7.40;;
46136;SDS011;31871;49.418;8.752;2022-09-25T10:10:51;11.48;;;6.32;;
46136;SDS011;31871;49.418;8.752;2022-09-25T10:13:19;12.23;;;6.20;;
46136;SDS011;31871;49.418;8.752;2022-09-25T10:18:38;13.02;;;6.25;;
46136;SDS011;31871;49.418;8.752;2022-09-25T10:21:15;13.98;;;5.05;;
46136;SDS011;31871;49.418;8.752;2022-09-25T10:29:24;7.28;;;4.30;;
46136;SDS011;31871;49.418;8.752;2022-09-25T10:31:57;6.70;;;3.58;;
46136;SDS011;31871;49.418;8.752;2022-09-25T10:34:26;10.38;;;3.80;;
46136;SDS011;31871;49.418;8.752;2022-09-25T10:36:53;5.50;;;3.05;;
46136;SDS011;31871;49.418;8.752;2022-09-25T10:39:27;14.15;;;3.67;;
46136;SDS011;31871;49.418;8.752;2022-09-25T10:41:56;4.82;;;2.97;;
46136;SDS011;31871;49.418;8.752;2022-09-25T10:52:47;4.72;;;2.70;;
46136;SDS011;31871;49.418;8.752;2022-09-25T10:58:04;7.43;;;3.55;;
46136;SDS011;31871;49.418;8.752;2022-09-25T11:00:31;5.32;;;2.95;;
46136;SDS011;31871;49.418;8.752;2022-09-25T11:03:05;8.00;;;3.33;;
46136;SDS011;31871;49.418;8.752;2022-09-25T11:05:34;5.40;;;2.58;;
46136;SDS011;31871;49.418;8.752;2022-09-25T11:08:01;5.32;;;2.92;;
46136;SDS011;31871;49.418;8.752;2022-09-25T11:10:33;6.10;;;3.28;;
46136;SDS011;31871;49.418;8.752;2022-09-25T11:13:02;5.97;;;3.40;;
46136;SDS011;31871;49.418;8.752;2022-09-25T11:15:33;5.72;;;3.20;;
46136;SDS011;31871;49.418;8.752;2022-09-25T11:18:03;8.90;;;3.75;;
46136;SDS011;31871;49.418;8.752;2022-09-25T11:20:30;5.15;;;3.05;;
46136;SDS011;31871;49.418;8.752;2022-09-25T11:26:13;4.90;;;3.10;;
46136;SDS011;31871;49.418;8.752;2022-09-25T11:31:33;4.70;;;2.80;;
46136;SDS011;31871;49.418;8.752;2022-09-25T11:40:04;5.78;;;2.85;;
46136;SDS011;31871;49.418;8.752;2022-09-25T11:42:58;7.10;;;3.95;;
46136;SDS011;31871;49.418;8.752;2022-09-25T11:45:50;5.03;;;2.90;;
46136;SDS011;31871;49.418;8.752;2022-09-25T11:50:53;6.13;;;3.38;;
46136;SDS011;31871;49.418;8.752;2022-09-25T11:59:26;2.92;;;1.88;;
46136;SDS011;31871;49.418;8.752;2022-09-25T12:02:29;3.22;;;2.00;;
46136;SDS011;31871;49.418;8.752;2022-09-25T12:16:14;4.22;;;1.95;;
46136;SDS011;31871;49.418;8.752;2022-09-25T12:21:36;3.08;;;1.77;;
46136;SDS011;31871;49.418;8.752;2022-09-25T12:27:13;2.90;;;1.98;;
46136;SDS011;31871;49.418;8.752;2022-09-25T12:37:53;3.20;;;1.90;;
46136;SDS011;31871;49.418;8.752;2022-09-25T12:40:37;3.40;;;2.05;;
46136;SDS011;31871;49.418;8.752;2022-09-25T12:45:37;4.10;;;1.77;;
46136;SDS011;31871;49.418;8.752;2022-09-25T12:48:25;3.42;;;2.15;;
46136;SDS011;31871;49.418;8.752;2022-09-25T12:50:59;4.70;;;2.10;;
46136;SDS011;31871;49.418;8.752;2022-09-25T12:53:32;5.55;;;2.53;;
46136;SDS011;31871;49.418;8.752;2022-09-25T12:56:13;3.25;;;2.03;;
46136;SDS011;31871;49.418;8.752;2022-09-25T13:01:24;3.30;;;1.75;;
46136;SDS011;31871;49.418;8.752;2022-09-25T13:04:12;3.78;;;1.90;;
46136;SDS011;31871;49.418;8.752;2022-09-25T13:07:00;3.33;;;1.88;;
46136;SDS011;31871;49.418;8.752;2022-09-25T13:09:43;2.47;;;1.58;;
46136;SDS011;31871;49.418;8.752;2022-09-25T13:15:00;3.60;;;1.90;;
46136;SDS011;31871;49.418;8.752;2022-09-25T13:17:36;3.20;;;1.67;;
46136;SDS011;31871;49.418;8.752;2022-09-25T13:22:58;3.55;;;1.80;;
46136;SDS011;31871;49.418;8.752;2022-09-25T13:25:46;5.55;;;1.63;;
46136;SDS011;31871;49.418;8.752;2022-09-25T13:28:46;2.90;;;1.65;;
46136;SDS011;31871;49.418;8.752;2022-09-25T13:31:21;3.58;;;1.80;;
46136;SDS011;31871;49.418;8.752;2022-09-25T13:36:33;3.03;;;1.95;;
46136;SDS011;31871;49.418;8.752;2022-09-25T13:39:03;3.97;;;2.15;;
46136;SDS011;31871;49.418;8.752;2022-09-25T13:41:52;3.25;;;1.92;;
46136;SDS011;31871;49.418;8.752;2022-09-25T13:44:55;3.13;;;1.92;;
46136;SDS011;31871;49.418;8.752;2022-09-25T14:03:00;5.82;;;2.78;;
46136;SDS011;31871;49.418;8.752;2022-09-25T14:05:30;5.20;;;2.83;;
46136;SDS011;31871;49.418;8.752;2022-09-25T14:08:09;5.65;;;2.97;;
46136;SDS011;31871;49.418;8.752;2022-09-25T14:10:48;4.90;;;2.63;;
46136;SDS011;31871;49.418;8.752;2022-09-25T14:13:16;6.07;;;3.55;;
46136;SDS011;31871;49.418;8.752;2022-09-25T14:15:47;6.97;;;3.22;;
46136;SDS011;31871;49.418;8.752;2022-09-25T14:18:15;8.65;;;4.00;;
46136;SDS011;31871;49.418;8.752;2022-09-25T14:20:45;8.95;;;4.10;;
46136;SDS011;31871;49.418;8.752;2022-09-25T14:23:24;5.80;;;3.45;;
46136;SDS011;31871;49.418;8.752;2022-09-25T14:26:00;5.90;;;3.67;;
46136;SDS011;31871;49.418;8.752;2022-09-25T14:28:32;9.70;;;4.57;;
46136;SDS011;31871;49.418;8.752;2022-09-25T14:31:21;11.82;;;4.55;;
46136;SDS011;31871;49.418;8.752;2022-09-25T14:34:23;9.00;;;4.80;;
46136;SDS011;31871;49.418;8.752;2022-09-25T14:36:59;11.00;;;5.20;;
46136;SDS011;31871;49.418;8.752;2022-09-25T14:39:51;11.98;;;6.07;;
46136;SDS011;31871;49.418;8.752;2022-09-25T14:48:19;16.10;;;5.95;;
46136;SDS011;31871;49.418;8.752;2022-09-25T14:50:50;13.43;;;6.47;;
46136;SDS011;31871;49.418;8.752;2022-09-25T14:53:24;18.13;;;7.25;;
46136;SDS011;31871;49.418;8.752;2022-09-25T14:55:58;13.25;;;6.40;;
46136;SDS011;31871;49.418;8.752;2022-09-25T14:58:27;15.88;;;6.60;;
46136;SDS011;31871;49.418;8.752;2022-09-25T15:00:57;16.75;;;7.03;;
46136;SDS011;31871;49.418;8.752;2022-09-25T15:03:33;14.65;;;6.25;;
46136;SDS011;31871;49.418;8.752;2022-09-25T15:06:03;14.43;;;6.70;;
46136;SDS011;31871;49.418;8.752;2022-09-25T15:11:02;15.15;;;6.43;;
46136;SDS011;31871;49.418;8.752;2022-09-25T15:13:39;10.95;;;6.20;;
46136;SDS011;31871;49.418;8.752;2022-09-25T15:16:06;11.35;;;5.25;;
46136;SDS011;31871;49.418;8.752;2022-09-25T15:19:01;20.83;;;6.07;;
46136;SDS011;31871;49.418;8.752;2022-09-25T15:21:34;15.68;;;5.90;;
46136;SDS011;31871;49.418;8.752;2022-09-25T15:24:04;16.85;;;6.97;;
46136;SDS011;31871;49.418;8.752;2022-09-25T15:26:37;17.02;;;6.93;;
46136;SDS011;31871;49.418;8.752;2022-09-25T15:29:29;11.65;;;5.72;;
46136;SDS011;31871;49.418;8.752;2022-09-25T15:31:59;12.45;;;5.80;;
46136;SDS011;31871;49.418;8.752;2022-09-25T15:34:25;13.05;;;5.28;;
46136;SDS011;31871;49.418;8.752;2022-09-25T15:36:53;11.82;;;5.93;;
46136;SDS011;31871;49.418;8.752;2022-09-25T15:39:30;12.43;;;4.95;;
46136;SDS011;31871;49.418;8.752;2022-09-25T15:42:05;10.48;;;5.22;;
46136;SDS011;31871;49.418;8.752;2022-09-25T15:44:31;10.40;;;5.90;;
46136;SDS011;31871;49.418;8.752;2022-09-25T15:46:57;12.52;;;4.95;;
46136;SDS011;31871;49.418;8.752;2022-09-25T15:49:32;14.15;;;6.22;;
46136;SDS011;31871;49.418;8.752;2022-09-25T15:52:04;10.90;;;5.45;;
46136;SDS011;31871;49.418;8.752;2022-09-25T15:54:47;10.85;;;5.10;;
46136;SDS011;31871;49.418;8.752;2022-09-25T15:57:22;10.65;;;5.15;;
46136;SDS011;31871;49.418;8.752;2022-09-25T15:59:52;11.73;;;4.43;;
46136;SDS011;31871;49.418;8.752;2022-09-25T16:02:37;6.80;;;4.18;;
46136;SDS011;31871;49.418;8.752;2022-09-25T16:05:29;7.85;;;3.88;;
46136;SDS011;31871;49.418;8.752;2022-09-25T16:11:14;13.40;;;4.03;;
46136;SDS011;31871;49.418;8.752;2022-09-25T16:13:49;11.13;;;4.05;;
46136;SDS011;31871;49.418;8.752;2022-09-25T16:18:53;10.38;;;3.63;;
46136;SDS011;31871;49.418;8.752;2022-09-25T16:23:58;9.90;;;4.38;;
46136;SDS011;31871;49.418;8.752;2022-09-25T16:26:29;9.60;;;4.25;;
46136;SDS011;31871;49.418;8.752;2022-09-25T16:29:20;10.93;;;4.20;;
46136;SDS011;31871;49.418;8.752;2022-09-25T16:31:47;14.73;;;4.05;;
46136;SDS011;31871;49.418;8.752;2022-09-25T16:34:18;9.90;;;4.63;;
46136;SDS011;31871;49.418;8.752;2022-09-25T16:36:50;8.75;;;3.70;;
46136;SDS011;31871;49.418;8.752;2022-09-25T16:39:22;10.32;;;4.35;;
46136;SDS011;31871;49.418;8.752;2022-09-25T16:41:53;12.27;;;4.53;;
46136;SDS011;31871;49.418;8.752;2022-09-25T16:44:21;9.45;;;4.05;;
46136;SDS011;31871;49.418;8.752;2022-09-25T16:47:03;12.35;;;3.28;;
46136;SDS011;31871;49.418;8.752;2022-09-25T16:49:47;5.72;;;3.00;;
46136;SDS011;31871;49.418;8.752;2022-09-25T16:52:20;8.45;;;3.05;;
46136;SDS011;31871;49.418;8.752;2022-09-25T16:54:51;7.18;;;3.03;;
46136;SDS011;31871;49.418;8.752;2022-09-25T16:57:19;7.68;;;3.17;;
46136;SDS011;31871;49.418;8.752;2022-09-25T16:59:45;12.10;;;4.05;;
46136;SDS011;31871;49.418;8.752;2022-09-25T17:02:27;11.70;;;3.17;;
46136;SDS011;31871;49.418;8.752;2022-09-25T17:05:00;11.80;;;3.72;;
46136;SDS011;31871;49.418;8.752;2022-09-25T17:07:28;9.52;;;2.80;;
46136;SDS011;31871;49.418;8.752;2022-09-25T17:09:54;8.68;;;2.75;;
46136;SDS011;31871;49.418;8.752;2022-09-25T17:12:20;6.40;;;2.85;;
46136;SDS011;31871;49.418;8.752;2022-09-25T17:14:48;5.93;;;2.88;;
46136;SDS011;31871;49.418;8.752;2022-09-25T17:17:16;4.88;;;2.63;;
46136;SDS011;31871;49.418;8.752;2022-09-25T17:19:43;11.07;;;3.00;;
46136;SDS011;31871;49.418;8.752;2022-09-25T17:22:09;7.18;;;2.95;;
46136;SDS011;31871;49.418;8.752;2022-09-25T17:24:35;17.02;;;3.00;;
46136;SDS011;31871;49.418;8.752;2022-09-25T17:27:00;7.05;;;2.90;;
46136;SDS011;31871;49.418;8.752;2022-09-25T17:29:26;11.50;;;3.67;;
46136;SDS011;31871;49.418;8.752;2022-09-25T17:31:52;5.18;;;2.78;;
46136;SDS011;31871;49.418;8.752;2022-09-25T17:34:19;12.40;;;3.30;;
46136;SDS011;31871;49.418;8.752;2022-09-25T17:36:52;10.52;;;2.55;;
46136;SDS011;31871;49.418;8.752;2022-09-25T17:39:18;8.75;;;3.08;;
46136;SDS011;31871;49.418;8.752;2022-09-25T17:41:44;12.95;;;2.97;;
46136;SDS011;31871;49.418;8.752;2022-09-25T17:44:12;8.43;;;3.30;;
46136;SDS011;31871;49.418;8.752;2022-09-25T17:46:41;8.63;;;2.88;;
46136;SDS011;31871;49.418;8.752;2022-09-25T17:49:07;10.13;;;3.00;;